^^
Meteo Knjazevac Station Historical Data
Daily Summary for January 3, 2022 Units:  Both    English   Metric
Daily Weekly Monthly Yearly Custom
  High: Low: Average:
Temperature: 71.4 °F /  21.9 °C 48 °F /  8.9 °C 57.6 °F /  14.2 °C
Dew Point: 54.7 °F /  12.6 °C 44.6 °F /  7 °C 50.1 °F /  10.1 °C
Humidity: 98% 51.6% 78%
Wind Speed: 11.2mph /  18km/h - 4.3mph /  6.9km/h
Wind Gust: 13mph /  20.9km/h - -
Wind- - SW
Pressure: 30.26 in /  1024.6 hPa 30.12 in /  1019.9 hPa -
Precipitation: 0.00 in /  0 mm    
Historical Graphs
 
 
Tabular Data for January 3, 2022
Time Temperature Dew Point Pressure Wind Wind Speed Wind Gust Humidity Rainfall Rate (Hourly) solar Conditions
00:04 55.6 °F /  13.1 °C 48.8 °F /  9.3 °C 30.22in /  1023.2hPa SW 2.7mph /  4.3km/h 2.2mph /  3.5km/h 78% 0.00in /  0mm 0 W/m2
00:09 55.4 °F /  13 °C 48.8 °F /  9.3 °C 30.22in /  1023.2hPa WSW 3.2mph /  5.1km/h 3mph /  4.8km/h 78.3% 0.00in /  0mm 0 W/m2
00:14 55.3 °F /  12.9 °C 49 °F /  9.4 °C 30.22in /  1023.2hPa WSW 3mph /  4.8km/h 4mph /  6.4km/h 79.2% 0.00in /  0mm 0 W/m2
00:19 55.2 °F /  12.9 °C 49.1 °F /  9.5 °C 30.22in /  1023.2hPa WSW 3.3mph /  5.3km/h 4mph /  6.4km/h 79.7% 0.00in /  0mm 0 W/m2
00:24 55.2 °F /  12.9 °C 49.2 °F /  9.6 °C 30.22in /  1023.2hPa WSW 4.2mph /  6.8km/h 5mph /  8km/h 80% 0.00in /  0mm 0 W/m2
00:29 55.1 °F /  12.8 °C 49.2 °F /  9.6 °C 30.22in /  1023.2hPa WSW 4.9mph /  7.9km/h 5mph /  8km/h 80.5% 0.00in /  0mm 0 W/m2
00:34 55 °F /  12.8 °C 49.3 °F /  9.6 °C 30.22in /  1023.2hPa West 4.2mph /  6.8km/h 6mph /  9.7km/h 81% 0.00in /  0mm 0 W/m2
00:39 55 °F /  12.8 °C 49.3 °F /  9.6 °C 30.22in /  1023.2hPa West 3.4mph /  5.5km/h 5mph /  8km/h 81% 0.00in /  0mm 0 W/m2
00:44 54.9 °F /  12.7 °C 49.6 °F /  9.8 °C 30.22in /  1023.2hPa WSW 3.4mph /  5.5km/h 3mph /  4.8km/h 82.4% 0.00in /  0mm 0 W/m2
00:49 54.7 °F /  12.6 °C 49.6 °F /  9.8 °C 30.22in /  1023.2hPa WSW 2.9mph /  4.7km/h 4mph /  6.4km/h 83% 0.00in /  0mm 0 W/m2
00:54 54.7 °F /  12.6 °C 49.6 °F /  9.8 °C 30.22in /  1023.2hPa WSW 3.2mph /  5.1km/h 5mph /  8km/h 83% 0.00in /  0mm 0 W/m2
00:59 54.5 °F /  12.5 °C 49.4 °F /  9.7 °C 30.22in /  1023.2hPa WSW 2.3mph /  3.7km/h 4mph /  6.4km/h 83.1% 0.00in /  0mm 0 W/m2
01:04 54.4 °F /  12.4 °C 49.7 °F /  9.8 °C 30.22in /  1023.2hPa WSW 2.4mph /  3.9km/h 3mph /  4.8km/h 84% 0.00in /  0mm 0 W/m2
01:09 54.2 °F /  12.3 °C 49.5 °F /  9.7 °C 30.22in /  1023.2hPa West 2.8mph /  4.5km/h 2.5mph /  4km/h 84% 0.00in /  0mm 0 W/m2
01:14 54.1 °F /  12.3 °C 49.5 °F /  9.7 °C 30.22in /  1023.2hPa West 3.4mph /  5.5km/h 4mph /  6.4km/h 84.3% 0.00in /  0mm 0 W/m2
01:19 54.1 °F /  12.3 °C 49.7 °F /  9.8 °C 30.22in /  1023.2hPa West 3.9mph /  6.3km/h 4mph /  6.4km/h 85% 0.00in /  0mm 0 W/m2
01:24 54 °F /  12.2 °C 49.7 °F /  9.8 °C 30.22in /  1023.2hPa West 4.5mph /  7.2km/h 5mph /  8km/h 85.2% 0.00in /  0mm 0 W/m2
01:29 53.9 °F /  12.2 °C 49.8 °F /  9.9 °C 30.23in /  1023.6hPa West 4.3mph /  6.9km/h 5mph /  8km/h 86% 0.00in /  0mm 0 W/m2
01:34 53.7 °F /  12.1 °C 49.6 °F /  9.8 °C 30.23in /  1023.6hPa WSW 5.5mph /  8.9km/h 5.1mph /  8.2km/h 86% 0.00in /  0mm 0 W/m2
01:39 53.5 °F /  11.9 °C 49.8 °F /  9.9 °C 30.23in /  1023.6hPa WSW 5.9mph /  9.5km/h 7mph /  11.3km/h 87% 0.00in /  0mm 0 W/m2
01:44 53.3 °F /  11.8 °C 49.9 °F /  9.9 °C 30.23in /  1023.6hPa WSW 7.4mph /  11.9km/h 7mph /  11.3km/h 88% 0.00in /  0mm 0 W/m2
01:49 53.2 °F /  11.8 °C 50 °F /  10 °C 30.23in /  1023.6hPa WSW 7.6mph /  12.2km/h 9mph /  14.5km/h 88.8% 0.00in /  0mm 0 W/m2
01:54 53.1 °F /  11.7 °C 49.9 °F /  9.9 °C 30.23in /  1023.6hPa WSW 8.1mph /  13km/h 9mph /  14.5km/h 89% 0.00in /  0mm 0 W/m2
01:59 52.9 °F /  11.6 °C 49.8 °F /  9.9 °C 30.23in /  1023.6hPa WSW 6.5mph /  10.5km/h 9mph /  14.5km/h 89.4% 0.00in /  0mm 0 W/m2
02:04 52.9 °F /  11.6 °C 49.9 °F /  9.9 °C 30.23in /  1023.6hPa WSW 5.5mph /  8.9km/h 8mph /  12.9km/h 89.6% 0.00in /  0mm 0 W/m2
02:09 52.8 °F /  11.6 °C 49.9 °F /  9.9 °C 30.23in /  1023.6hPa West 4.8mph /  7.7km/h 6mph /  9.7km/h 90% 0.00in /  0mm 0 W/m2
02:14 52.6 °F /  11.4 °C 49.7 °F /  9.8 °C 30.23in /  1023.6hPa West 4.9mph /  7.9km/h 6mph /  9.7km/h 90% 0.00in /  0mm 0 W/m2
02:19 52.4 °F /  11.3 °C 49.7 °F /  9.8 °C 30.23in /  1023.6hPa West 5.2mph /  8.4km/h 5mph /  8km/h 90.3% 0.00in /  0mm 0 W/m2
02:24 52.3 °F /  11.3 °C 49.7 °F /  9.8 °C 30.23in /  1023.6hPa West 4mph /  6.4km/h 6mph /  9.7km/h 91% 0.00in /  0mm 0 W/m2
02:29 52.2 °F /  11.2 °C 49.6 °F /  9.8 °C 30.23in /  1023.6hPa West 3.7mph /  6km/h 5mph /  8km/h 91% 0.00in /  0mm 0 W/m2
02:34 52 °F /  11.1 °C 49.4 °F /  9.7 °C 30.23in /  1023.6hPa West 4.5mph /  7.2km/h 5mph /  8km/h 91% 0.00in /  0mm 0 W/m2
02:39 51.9 °F /  11.1 °C 49.4 °F /  9.7 °C 30.23in /  1023.6hPa West 3.7mph /  6km/h 5mph /  8km/h 91% 0.00in /  0mm 0 W/m2
02:44 51.8 °F /  11 °C 49.4 °F /  9.7 °C 30.23in /  1023.6hPa WSW 3.8mph /  6.1km/h 5mph /  8km/h 91.4% 0.00in /  0mm 0 W/m2
02:49 51.7 °F /  10.9 °C 49.6 °F /  9.8 °C 30.22in /  1023.2hPa WSW 5.3mph /  8.5km/h 5mph /  8km/h 92.4% 0.00in /  0mm 0 W/m2
02:54 51.6 °F /  10.9 °C 49.7 °F /  9.8 °C 30.23in /  1023.6hPa WSW 5.8mph /  9.3km/h 7mph /  11.3km/h 93% 0.00in /  0mm 0 W/m2
02:59 51.4 °F /  10.8 °C 49.5 °F /  9.7 °C 30.23in /  1023.6hPa WSW 6.3mph /  10.1km/h 7mph /  11.3km/h 93% 0.00in /  0mm 0 W/m2
03:04 51.4 °F /  10.8 °C 49.5 °F /  9.7 °C 30.23in /  1023.6hPa WSW 5.5mph /  8.9km/h 7mph /  11.3km/h 93% 0.00in /  0mm 0 W/m2
03:09 51.3 °F /  10.7 °C 49.4 °F /  9.7 °C 30.23in /  1023.6hPa WSW 4.9mph /  7.9km/h 6mph /  9.7km/h 93.1% 0.00in /  0mm 0 W/m2
03:14 51.3 °F /  10.7 °C 49.6 °F /  9.8 °C 30.23in /  1023.6hPa WSW 5.5mph /  8.9km/h 6mph /  9.7km/h 94% 0.00in /  0mm 0 W/m2
03:19 51.2 °F /  10.7 °C 49.5 °F /  9.7 °C 30.23in /  1023.6hPa WSW 4.7mph /  7.6km/h 6mph /  9.7km/h 94% 0.00in /  0mm 0 W/m2
03:24 51.1 °F /  10.6 °C 49.4 °F /  9.7 °C 30.23in /  1023.6hPa WSW 3.9mph /  6.3km/h 6mph /  9.7km/h 94% 0.00in /  0mm 0 W/m2
03:29 50.9 °F /  10.5 °C 49.2 °F /  9.6 °C 30.23in /  1023.6hPa SW 3.8mph /  6.1km/h 4mph /  6.4km/h 94% 0.00in /  0mm 0 W/m2
03:34 50.7 °F /  10.4 °C 49.1 °F /  9.5 °C 30.23in /  1023.6hPa SW 4.7mph /  7.6km/h 5mph /  8km/h 94% 0.00in /  0mm 0 W/m2
03:39 50.7 °F /  10.4 °C 49.1 °F /  9.5 °C 30.23in /  1023.6hPa WSW 4.2mph /  6.8km/h 6mph /  9.7km/h 94% 0.00in /  0mm 0 W/m2
03:44 50.6 °F /  10.3 °C 48.9 °F /  9.4 °C 30.23in /  1023.6hPa WSW 4.3mph /  6.9km/h 5mph /  8km/h 94% 0.00in /  0mm 0 W/m2
03:49 50.5 °F /  10.3 °C 49.2 °F /  9.6 °C 30.23in /  1023.6hPa WSW 3.8mph /  6.1km/h 6mph /  9.7km/h 94.8% 0.00in /  0mm 0 W/m2
03:54 50.5 °F /  10.3 °C 49.1 °F /  9.5 °C 30.23in /  1023.6hPa WSW 4.1mph /  6.6km/h 4mph /  6.4km/h 95% 0.00in /  0mm 0 W/m2
03:59 50.4 °F /  10.2 °C 49 °F /  9.4 °C 30.23in /  1023.6hPa WSW 3.7mph /  6km/h 5mph /  8km/h 95% 0.00in /  0mm 0 W/m2
04:04 50.3 °F /  10.2 °C 49 °F /  9.4 °C 30.23in /  1023.6hPa WSW 4.2mph /  6.8km/h 5mph /  8km/h 95% 0.00in /  0mm 0 W/m2
04:09 50.2 °F /  10.1 °C 48.8 °F /  9.3 °C 30.23in /  1023.6hPa WSW 4.1mph /  6.6km/h 5mph /  8km/h 95% 0.00in /  0mm 0 W/m2
04:14 50.2 °F /  10.1 °C 48.8 °F /  9.3 °C 30.23in /  1023.6hPa WSW 4.6mph /  7.4km/h 6mph /  9.7km/h 95% 0.00in /  0mm 0 W/m2
04:19 50.1 °F /  10.1 °C 48.7 °F /  9.3 °C 30.23in /  1023.6hPa WSW 3.4mph /  5.5km/h 6mph /  9.7km/h 95% 0.00in /  0mm 0 W/m2
04:24 49.8 °F /  9.9 °C 48.4 °F /  9.1 °C 30.23in /  1023.6hPa WSW 5mph /  8km/h 5mph /  8km/h 95% 0.00in /  0mm 0 W/m2
04:29 49.7 °F /  9.8 °C 48.3 °F /  9.1 °C 30.23in /  1023.6hPa SW 4.1mph /  6.6km/h 6mph /  9.7km/h 95% 0.00in /  0mm 0 W/m2
04:34 49.6 °F /  9.8 °C 48.3 °F /  9.1 °C 30.23in /  1023.6hPa SW 4.4mph /  7.1km/h 5mph /  8km/h 95% 0.00in /  0mm 0 W/m2
04:39 49.5 °F /  9.7 °C 48.2 °F /  9 °C 30.23in /  1023.6hPa SW 3.9mph /  6.3km/h 5mph /  8km/h 95% 0.00in /  0mm 0 W/m2
04:44 49.4 °F /  9.7 °C 48 °F /  8.9 °C 30.23in /  1023.6hPa SW 3.8mph /  6.1km/h 5mph /  8km/h 95% 0.00in /  0mm 0 W/m2
04:49 49.1 °F /  9.5 °C 47.7 °F /  8.7 °C 30.23in /  1023.6hPa SW 3.3mph /  5.3km/h 5mph /  8km/h 95% 0.00in /  0mm 0 W/m2
04:54 49 °F /  9.4 °C 47.7 °F /  8.7 °C 30.23in /  1023.6hPa SW 2.4mph /  3.9km/h 4mph /  6.4km/h 95% 0.00in /  0mm 0 W/m2
04:59 48.9 °F /  9.4 °C 47.6 °F /  8.7 °C 30.23in /  1023.6hPa SW 2.3mph /  3.7km/h 3mph /  4.8km/h 95% 0.00in /  0mm 0 W/m2
05:04 48.8 °F /  9.3 °C 47.5 °F /  8.6 °C 30.23in /  1023.6hPa SSW 2.7mph /  4.3km/h 3mph /  4.8km/h 95% 0.00in /  0mm 0 W/m2
05:09 48.9 °F /  9.4 °C 47.7 °F /  8.7 °C 30.23in /  1023.6hPa South 2.7mph /  4.3km/h 3mph /  4.8km/h 95.6% 0.00in /  0mm 0 W/m2
05:14 49 °F /  9.4 °C 47.9 °F /  8.8 °C 30.23in /  1023.6hPa SSE 2.2mph /  3.5km/h 3mph /  4.8km/h 96% 0.00in /  0mm 0 W/m2
05:19 49.1 °F /  9.5 °C 47.7 °F /  8.7 °C 30.23in /  1023.6hPa SE 1mph /  1.6km/h 2mph /  3.2km/h 95.2% 0.00in /  0mm 0 W/m2
05:24 49 °F /  9.4 °C 47.6 °F /  8.7 °C 30.23in /  1023.6hPa South 0.3mph /  0.5km/h 2mph /  3.2km/h 95% 0.00in /  0mm 0 W/m2
05:29 48.9 °F /  9.4 °C 47.6 °F /  8.7 °C 30.23in /  1023.6hPa SSE 1.1mph /  1.8km/h 1mph /  1.6km/h 95% 0.00in /  0mm 0 W/m2
05:34 48.9 °F /  9.4 °C 47.6 °F /  8.7 °C 30.23in /  1023.6hPa NNE 1.2mph /  1.9km/h 2mph /  3.2km/h 95% 0.00in /  0mm 0 W/m2
05:39 48.8 °F /  9.3 °C 47.5 °F /  8.6 °C 30.23in /  1023.6hPa NNW 1mph /  1.6km/h 2mph /  3.2km/h 95% 0.00in /  0mm 0 W/m2
05:44 48.7 °F /  9.3 °C 47.7 °F /  8.7 °C 30.23in /  1023.6hPa NNW 1.9mph /  3.1km/h 1.8mph /  2.9km/h 95.9% 0.00in /  0mm 0 W/m2
05:49 48.7 °F /  9.3 °C 47.7 °F /  8.7 °C 30.23in /  1023.6hPa West 1.4mph /  2.3km/h 2mph /  3.2km/h 96% 0.00in /  0mm 0 W/m2
05:54 48.7 °F /  9.3 °C 47.7 °F /  8.7 °C 30.23in /  1023.6hPa West 0.8mph /  1.3km/h 2mph /  3.2km/h 96% 0.00in /  0mm 0 W/m2
05:59 48.7 °F /  9.3 °C 47.7 °F /  8.7 °C 30.23in /  1023.6hPa West 1mph /  1.6km/h 1mph /  1.6km/h 96% 0.00in /  0mm 0 W/m2
06:04 48.7 °F /  9.3 °C 47.7 °F /  8.7 °C 30.23in /  1023.6hPa West 1.7mph /  2.7km/h 2mph /  3.2km/h 96% 0.00in /  0mm 1 W/m2
06:09 48.7 °F /  9.3 °C 47.7 °F /  8.7 °C 30.23in /  1023.6hPa WSW 1.6mph /  2.6km/h 2mph /  3.2km/h 96% 0.00in /  0mm 3 W/m2
06:14 48.6 °F /  9.2 °C 47.5 °F /  8.6 °C 30.23in /  1023.6hPa WSW 2.3mph /  3.7km/h 2mph /  3.2km/h 96% 0.00in /  0mm 5 W/m2
06:19 48.5 °F /  9.2 °C 47.4 °F /  8.6 °C 30.23in /  1023.6hPa WSW 2.3mph /  3.7km/h 3mph /  4.8km/h 96% 0.00in /  0mm 10 W/m2
06:24 48.3 °F /  9.1 °C 47.2 °F /  8.4 °C 30.23in /  1023.6hPa SW 2.3mph /  3.7km/h 3mph /  4.8km/h 96% 0.00in /  0mm 12 W/m2
06:29 48.2 °F /  9 °C 47.1 °F /  8.4 °C 30.23in /  1023.6hPa SSW 2.2mph /  3.5km/h 3mph /  4.8km/h 96% 0.00in /  0mm 16 W/m2
06:34 48.1 °F /  8.9 °C 47 °F /  8.3 °C 30.24in /  1023.9hPa SSW 1.4mph /  2.3km/h 3mph /  4.8km/h 96% 0.00in /  0mm 20 W/m2
06:39 48 °F /  8.9 °C 47 °F /  8.3 °C 30.24in /  1023.9hPa West 1.6mph /  2.6km/h 2mph /  3.2km/h 96.3% 0.00in /  0mm 26 W/m2
06:44 48 °F /  8.9 °C 47.5 °F /  8.6 °C 30.24in /  1023.9hPa West 2.1mph /  3.4km/h 2mph /  3.2km/h 97.9% 0.00in /  0mm 32 W/m2
06:49 48 °F /  8.9 °C 47.5 °F /  8.6 °C 30.24in /  1023.9hPa WSW 2.1mph /  3.4km/h 2mph /  3.2km/h 98% 0.00in /  0mm 31 W/m2
06:54 48 °F /  8.9 °C 47.5 °F /  8.6 °C 30.25in /  1024.3hPa SW 2mph /  3.2km/h 2mph /  3.2km/h 98% 0.00in /  0mm 38 W/m2
06:59 48.2 °F /  9 °C 47.7 °F /  8.7 °C 30.25in /  1024.3hPa SE 1.9mph /  3.1km/h 3mph /  4.8km/h 98% 0.00in /  0mm 64 W/m2
07:04 48.3 °F /  9.1 °C 47.7 °F /  8.7 °C 30.25in /  1024.3hPa South 1.8mph /  2.9km/h 2mph /  3.2km/h 98% 0.00in /  0mm 66 W/m2
07:09 48.4 °F /  9.1 °C 47.8 °F /  8.8 °C 30.25in /  1024.3hPa SSW 2.2mph /  3.5km/h 2mph /  3.2km/h 98% 0.00in /  0mm 79 W/m2
07:14 48.6 °F /  9.2 °C 48 °F /  8.9 °C 30.25in /  1024.3hPa SSW 3mph /  4.8km/h 2.2mph /  3.5km/h 98% 0.00in /  0mm 105 W/m2
07:19 48.7 °F /  9.3 °C 48.1 °F /  8.9 °C 30.25in /  1024.3hPa South 3.2mph /  5.1km/h 4mph /  6.4km/h 98% 0.00in /  0mm 115 W/m2
07:24 48.8 °F /  9.3 °C 47.9 °F /  8.8 °C 30.25in /  1024.3hPa South 3.1mph /  5km/h 4mph /  6.4km/h 96.7% 0.00in /  0mm 125 W/m2
07:29 49.1 °F /  9.5 °C 48 °F /  8.9 °C 30.25in /  1024.3hPa SSW 1.6mph /  2.6km/h 3mph /  4.8km/h 96% 0.00in /  0mm 126 W/m2
07:34 49.6 °F /  9.8 °C 48.5 °F /  9.2 °C 30.25in /  1024.3hPa SW 0.9mph /  1.4km/h 2mph /  3.2km/h 96% 0.00in /  0mm 154 W/m2
07:39 50.2 °F /  10.1 °C 48.9 °F /  9.4 °C 30.25in /  1024.3hPa SW 2.2mph /  3.5km/h 2mph /  3.2km/h 95.5% 0.00in /  0mm 169 W/m2
07:44 51 °F /  10.6 °C 49.5 °F /  9.7 °C 30.25in /  1024.3hPa WSW 1.7mph /  2.7km/h 2mph /  3.2km/h 94.9% 0.00in /  0mm 179 W/m2
07:49 51.7 °F /  10.9 °C 50 °F /  10 °C 30.25in /  1024.3hPa WSW 2.3mph /  3.7km/h 3mph /  4.8km/h 93.8% 0.00in /  0mm 196 W/m2
07:54 52.6 °F /  11.4 °C 50.6 °F /  10.3 °C 30.25in /  1024.3hPa SW 3.2mph /  5.1km/h 2.2mph /  3.5km/h 93% 0.00in /  0mm 198 W/m2
07:59 53.1 °F /  11.7 °C 50.7 °F /  10.4 °C 30.25in /  1024.3hPa SW 4.5mph /  7.2km/h 5mph /  8km/h 91.3% 0.00in /  0mm 194 W/m2
08:04 53.6 °F /  12 °C 50.8 °F /  10.4 °C 30.26in /  1024.6hPa SW 3.5mph /  5.6km/h 5mph /  8km/h 90.3% 0.00in /  0mm 194 W/m2
08:09 53.8 °F /  12.1 °C 50.9 °F /  10.5 °C 30.26in /  1024.6hPa SW 2.5mph /  4km/h 4mph /  6.4km/h 90% 0.00in /  0mm 212 W/m2
08:14 54 °F /  12.2 °C 51.1 °F /  10.6 °C 30.26in /  1024.6hPa SW 3.2mph /  5.1km/h 3mph /  4.8km/h 89.7% 0.00in /  0mm 260 W/m2
08:19 54.1 °F /  12.3 °C 51 °F /  10.6 °C 30.25in /  1024.3hPa SSW 3.8mph /  6.1km/h 4mph /  6.4km/h 89% 0.00in /  0mm 269 W/m2
08:24 54.2 °F /  12.3 °C 51 °F /  10.6 °C 30.25in /  1024.3hPa South 2.8mph /  4.5km/h 5mph /  8km/h 89% 0.00in /  0mm 290 W/m2
08:29 54.8 °F /  12.7 °C 51.5 °F /  10.8 °C 30.25in /  1024.3hPa SSW 2.1mph /  3.4km/h 3mph /  4.8km/h 88.6% 0.00in /  0mm 301 W/m2
08:34 55.4 °F /  13 °C 51.5 °F /  10.8 °C 30.25in /  1024.3hPa SW 2.7mph /  4.3km/h 2mph /  3.2km/h 86.6% 0.00in /  0mm 307 W/m2
08:39 56.2 °F /  13.4 °C 51.9 °F /  11.1 °C 30.25in /  1024.3hPa SW 2.8mph /  4.5km/h 3mph /  4.8km/h 85.6% 0.00in /  0mm 337 W/m2
08:44 56.8 °F /  13.8 °C 52.2 °F /  11.2 °C 30.25in /  1024.3hPa WSW 4.1mph /  6.6km/h 3.1mph /  5km/h 84.5% 0.00in /  0mm 365 W/m2
08:49 56.8 °F /  13.8 °C 52.1 °F /  11.2 °C 30.25in /  1024.3hPa WSW 3.4mph /  5.5km/h 5mph /  8km/h 84% 0.00in /  0mm 338 W/m2
08:54 56.6 °F /  13.7 °C 51.7 °F /  10.9 °C 30.25in /  1024.3hPa SW 4mph /  6.4km/h 3mph /  4.8km/h 83.6% 0.00in /  0mm 357 W/m2
08:59 56.5 °F /  13.6 °C 51.9 °F /  11.1 °C 30.25in /  1024.3hPa SW 4.7mph /  7.6km/h 5mph /  8km/h 84.6% 0.00in /  0mm 361 W/m2
09:04 56.8 °F /  13.8 °C 52 °F /  11.1 °C 30.24in /  1023.9hPa SW 6.1mph /  9.8km/h 6mph /  9.7km/h 84.2% 0.00in /  0mm 392 W/m2
09:09 56.9 °F /  13.8 °C 52.2 °F /  11.2 °C 30.25in /  1024.3hPa SW 7.1mph /  11.4km/h 7mph /  11.3km/h 84% 0.00in /  0mm 403 W/m2
09:14 57.5 °F /  14.2 °C 52.6 °F /  11.4 °C 30.24in /  1023.9hPa WSW 8.3mph /  13.4km/h 9mph /  14.5km/h 83.6% 0.00in /  0mm 417 W/m2
09:19 58 °F /  14.4 °C 52.9 °F /  11.6 °C 30.24in /  1023.9hPa WSW 8.4mph /  13.5km/h 10mph /  16.1km/h 83% 0.00in /  0mm 448 W/m2
09:24 58.2 °F /  14.6 °C 52.6 °F /  11.4 °C 30.24in /  1023.9hPa WSW 8.3mph /  13.4km/h 9mph /  14.5km/h 81.4% 0.00in /  0mm 481 W/m2
09:29 58.1 °F /  14.5 °C 52.3 °F /  11.3 °C 30.24in /  1023.9hPa SW 9.5mph /  15.3km/h 9mph /  14.5km/h 81% 0.00in /  0mm 491 W/m2
09:34 58.2 °F /  14.6 °C 52.3 °F /  11.3 °C 30.23in /  1023.6hPa SW 8.2mph /  13.2km/h 10mph /  16.1km/h 81% 0.00in /  0mm 465 W/m2
09:39 58.6 °F /  14.8 °C 52.6 °F /  11.4 °C 30.23in /  1023.6hPa SW 8.5mph /  13.7km/h 10mph /  16.1km/h 80.5% 0.00in /  0mm 448 W/m2
09:44 58.8 °F /  14.9 °C 52.7 °F /  11.5 °C 30.23in /  1023.6hPa SW 8.2mph /  13.2km/h 9mph /  14.5km/h 80% 0.00in /  0mm 448 W/m2
09:49 59 °F /  15 °C 52.6 °F /  11.4 °C 30.23in /  1023.6hPa SW 8.3mph /  13.4km/h 9mph /  14.5km/h 79.3% 0.00in /  0mm 437 W/m2
09:54 58.8 °F /  14.9 °C 52.3 °F /  11.3 °C 30.23in /  1023.6hPa SW 9mph /  14.5km/h 9mph /  14.5km/h 79% 0.00in /  0mm 426 W/m2
09:59 58.8 °F /  14.9 °C 52.3 °F /  11.3 °C 30.23in /  1023.6hPa SW 9.4mph /  15.1km/h 10mph /  16.1km/h 79% 0.00in /  0mm 345 W/m2
10:04 59.2 °F /  15.1 °C 52.6 °F /  11.4 °C 30.23in /  1023.6hPa SW 10.1mph /  16.3km/h 10mph /  16.1km/h 79% 0.00in /  0mm 349 W/m2
10:09 59.5 °F /  15.3 °C 53 °F /  11.7 °C 30.23in /  1023.6hPa SW 9.5mph /  15.3km/h 11mph /  17.7km/h 79% 0.00in /  0mm 329 W/m2
10:14 60.1 °F /  15.6 °C 53.3 °F /  11.8 °C 30.23in /  1023.6hPa SW 10mph /  16.1km/h 12mph /  19.3km/h 78.2% 0.00in /  0mm 341 W/m2
10:19 60.3 °F /  15.7 °C 53.3 °F /  11.8 °C 30.22in /  1023.2hPa SW 11.2mph /  18km/h 13mph /  20.9km/h 77.8% 0.00in /  0mm 376 W/m2
10:24 60.5 °F /  15.8 °C 53.5 °F /  11.9 °C 30.22in /  1023.2hPa SW 9.2mph /  14.8km/h 13mph /  20.9km/h 77.6% 0.00in /  0mm 365 W/m2
10:29 60.9 °F /  16.1 °C 53.6 °F /  12 °C 30.22in /  1023.2hPa SW 9.7mph /  15.6km/h 10mph /  16.1km/h 77% 0.00in /  0mm 362 W/m2
10:34 61 °F /  16.1 °C 53.1 °F /  11.7 °C 30.22in /  1023.2hPa SW 8.6mph /  13.8km/h 11mph /  17.7km/h 75.2% 0.00in /  0mm 412 W/m2
10:39 61.2 °F /  16.2 °C 53.2 °F /  11.8 °C 30.22in /  1023.2hPa SW 9mph /  14.5km/h 10mph /  16.1km/h 75% 0.00in /  0mm 448 W/m2
10:44 61.6 °F /  16.4 °C 53.6 °F /  12 °C 30.22in /  1023.2hPa SW 7.6mph /  12.2km/h 10mph /  16.1km/h 75% 0.00in /  0mm 471 W/m2
10:49 62.3 °F /  16.8 °C 53.9 °F /  12.2 °C 30.21in /  1022.9hPa WSW 8.3mph /  13.4km/h 9mph /  14.5km/h 74.2% 0.00in /  0mm 511 W/m2
10:54 62.8 °F /  17.1 °C 54.1 °F /  12.3 °C 30.21in /  1022.9hPa WSW 7.7mph /  12.4km/h 9mph /  14.5km/h 73.3% 0.00in /  0mm 516 W/m2
10:59 63 °F /  17.2 °C 54.2 °F /  12.3 °C 30.21in /  1022.9hPa SW 7.8mph /  12.6km/h 8mph /  12.9km/h 73% 0.00in /  0mm 520 W/m2
11:04 63.5 °F /  17.5 °C 54.3 °F /  12.4 °C 30.21in /  1022.9hPa WSW 7.4mph /  11.9km/h 8mph /  12.9km/h 72.1% 0.00in /  0mm 541 W/m2
11:09 64 °F /  17.8 °C 54.3 °F /  12.4 °C 30.21in /  1022.9hPa WSW 7.2mph /  11.6km/h 8mph /  12.9km/h 70.5% 0.00in /  0mm 541 W/m2
11:14 64.7 °F /  18.2 °C 54.5 °F /  12.5 °C 30.20in /  1022.6hPa WSW 6.3mph /  10.1km/h 8mph /  12.9km/h 69.6% 0.00in /  0mm 548 W/m2
11:19 65.2 °F /  18.4 °C 54.6 °F /  12.6 °C 30.20in /  1022.6hPa WSW 5.8mph /  9.3km/h 7mph /  11.3km/h 68.5% 0.00in /  0mm 545 W/m2
11:24 65.4 °F /  18.6 °C 54.4 °F /  12.4 °C 30.20in /  1022.6hPa WSW 4.4mph /  7.1km/h 7mph /  11.3km/h 67.5% 0.00in /  0mm 544 W/m2
11:29 66 °F /  18.9 °C 54.6 °F /  12.6 °C 30.19in /  1022.2hPa WSW 5mph /  8km/h 5mph /  8km/h 66.7% 0.00in /  0mm 541 W/m2
11:30 66.2 °F /  19 °C 54.5 °F /  12.5 °C 30.19in /  1022.2hPa WSW 3mph /  4.8km/h 6mph /  9.7km/h 66% 0.00in /  0mm 476 W/m2
11:39 66.7 °F /  19.3 °C 54.7 °F /  12.6 °C 30.19in /  1022.2hPa WSW 4.6mph /  7.4km/h 6mph /  9.7km/h 65.3% 0.00in /  0mm 538 W/m2
11:44 66.9 °F /  19.4 °C 54.5 °F /  12.5 °C 30.19in /  1022.2hPa WSW 5.4mph /  8.7km/h 5mph /  8km/h 64.5% 0.00in /  0mm 534 W/m2
11:49 66.9 °F /  19.4 °C 54.3 °F /  12.4 °C 30.19in /  1022.2hPa SW 4.9mph /  7.9km/h 7mph /  11.3km/h 64% 0.00in /  0mm 534 W/m2
11:54 67.1 °F /  19.5 °C 54.5 °F /  12.5 °C 30.19in /  1022.2hPa SW 4.3mph /  6.9km/h 6mph /  9.7km/h 64% 0.00in /  0mm 533 W/m2
11:59 67.4 °F /  19.7 °C 54.7 °F /  12.6 °C 30.19in /  1022.2hPa SW 4.2mph /  6.8km/h 5mph /  8km/h 63.8% 0.00in /  0mm 532 W/m2
12:04 67.5 °F /  19.7 °C 54.4 °F /  12.4 °C 30.19in /  1022.2hPa SW 4.4mph /  7.1km/h 5mph /  8km/h 63% 0.00in /  0mm 523 W/m2
12:09 67.4 °F /  19.7 °C 54.1 °F /  12.3 °C 30.18in /  1021.9hPa SSW 3.2mph /  5.1km/h 5mph /  8km/h 62.4% 0.00in /  0mm 520 W/m2
12:14 67.4 °F /  19.7 °C 54.4 °F /  12.4 °C 30.18in /  1021.9hPa South 5.3mph /  8.5km/h 5mph /  8km/h 63% 0.00in /  0mm 519 W/m2
12:19 67.5 °F /  19.7 °C 54.1 °F /  12.3 °C 30.17in /  1021.6hPa South 4.8mph /  7.7km/h 6mph /  9.7km/h 62.1% 0.00in /  0mm 512 W/m2
12:24 67.7 °F /  19.8 °C 54.1 °F /  12.3 °C 30.17in /  1021.6hPa South 4.3mph /  6.9km/h 6mph /  9.7km/h 61.6% 0.00in /  0mm 507 W/m2
12:29 67.9 °F /  19.9 °C 53.8 °F /  12.1 °C 30.17in /  1021.6hPa South 4.2mph /  6.8km/h 5mph /  8km/h 60.7% 0.00in /  0mm 495 W/m2
12:34 67.9 °F /  19.9 °C 53.2 °F /  11.8 °C 30.17in /  1021.6hPa South 3.5mph /  5.6km/h 5mph /  8km/h 59.4% 0.00in /  0mm 496 W/m2
12:39 68 °F /  20 °C 53.5 °F /  11.9 °C 30.17in /  1021.6hPa SSE 4.7mph /  7.6km/h 5mph /  8km/h 59.8% 0.00in /  0mm 493 W/m2
12:44 68.1 °F /  20.1 °C 53.3 °F /  11.8 °C 30.17in /  1021.6hPa SSE 4.1mph /  6.6km/h 6mph /  9.7km/h 59.2% 0.00in /  0mm 486 W/m2
12:49 68.2 °F /  20.1 °C 53.4 °F /  11.9 °C 30.17in /  1021.6hPa SSE 4.3mph /  6.9km/h 5mph /  8km/h 59.2% 0.00in /  0mm 475 W/m2
12:54 68.7 °F /  20.4 °C 53.8 °F /  12.1 °C 30.16in /  1021.2hPa ESE 3.6mph /  5.8km/h 6mph /  9.7km/h 58.8% 0.00in /  0mm 465 W/m2
12:59 69.4 °F /  20.8 °C 54 °F /  12.2 °C 30.16in /  1021.2hPa NE 2.6mph /  4.2km/h 5mph /  8km/h 58.1% 0.00in /  0mm 455 W/m2
13:04 69.6 °F /  20.9 °C 53.7 °F /  12.1 °C 30.16in /  1021.2hPa ESE 3.4mph /  5.5km/h 3mph /  4.8km/h 57% 0.00in /  0mm 441 W/m2
13:09 69.7 °F /  20.9 °C 53.4 °F /  11.9 °C 30.16in /  1021.2hPa ESE 2.8mph /  4.5km/h 3mph /  4.8km/h 56.2% 0.00in /  0mm 435 W/m2
13:14 70.2 °F /  21.2 °C 54.3 °F /  12.4 °C 30.15in /  1020.9hPa North 4.5mph /  7.2km/h 4.5mph /  7.2km/h 57.3% 0.00in /  0mm 425 W/m2
13:19 70.6 °F /  21.4 °C 54.6 °F /  12.6 °C 30.15in /  1020.9hPa NNW 7.6mph /  12.2km/h 6mph /  9.7km/h 57% 0.00in /  0mm 411 W/m2
13:24 70.7 °F /  21.5 °C 53.9 °F /  12.2 °C 30.15in /  1020.9hPa North 7mph /  11.3km/h 9mph /  14.5km/h 55.4% 0.00in /  0mm 401 W/m2
13:29 71 °F /  21.7 °C 53.7 °F /  12.1 °C 30.15in /  1020.9hPa NNE 5.9mph /  9.5km/h 8mph /  12.9km/h 54.5% 0.00in /  0mm 394 W/m2
13:34 71.1 °F /  21.7 °C 54 °F /  12.2 °C 30.14in /  1020.5hPa NNE 7.1mph /  11.4km/h 8mph /  12.9km/h 54.7% 0.00in /  0mm 384 W/m2
13:39 71.2 °F /  21.8 °C 54.2 °F /  12.3 °C 30.14in /  1020.5hPa NNE 5.1mph /  8.2km/h 8mph /  12.9km/h 55% 0.00in /  0mm 370 W/m2
13:44 71.4 °F /  21.9 °C 54.1 °F /  12.3 °C 30.14in /  1020.5hPa North 6.6mph /  10.6km/h 7mph /  11.3km/h 54.3% 0.00in /  0mm 356 W/m2
13:49 71.2 °F /  21.8 °C 53.5 °F /  11.9 °C 30.14in /  1020.5hPa North 6.1mph /  9.8km/h 8mph /  12.9km/h 53.5% 0.00in /  0mm 343 W/m2
13:54 71.1 °F /  21.7 °C 53.2 °F /  11.8 °C 30.14in /  1020.5hPa North 6.7mph /  10.8km/h 8mph /  12.9km/h 53.1% 0.00in /  0mm 331 W/m2
13:59 71.1 °F /  21.7 °C 53.1 °F /  11.7 °C 30.14in /  1020.5hPa North 6.5mph /  10.5km/h 7mph /  11.3km/h 53% 0.00in /  0mm 317 W/m2
14:04 70.9 °F /  21.6 °C 52.6 °F /  11.4 °C 30.14in /  1020.5hPa North 7.3mph /  11.7km/h 8mph /  12.9km/h 52.3% 0.00in /  0mm 304 W/m2
14:09 70.9 °F /  21.6 °C 52.4 °F /  11.3 °C 30.14in /  1020.5hPa North 8mph /  12.9km/h 8mph /  12.9km/h 52% 0.00in /  0mm 291 W/m2
14:14 70.9 °F /  21.6 °C 52.4 °F /  11.3 °C 30.14in /  1020.5hPa North 7.9mph /  12.7km/h 9mph /  14.5km/h 52% 0.00in /  0mm 279 W/m2
14:19 70.9 °F /  21.6 °C 52.4 °F /  11.3 °C 30.13in /  1020.2hPa North 9.2mph /  14.8km/h 9mph /  14.5km/h 52% 0.00in /  0mm 266 W/m2
14:24 70.9 °F /  21.6 °C 52.4 °F /  11.3 °C 30.13in /  1020.2hPa North 6.6mph /  10.6km/h 10mph /  16.1km/h 52% 0.00in /  0mm 252 W/m2
14:29 70.9 °F /  21.6 °C 52.2 °F /  11.2 °C 30.13in /  1020.2hPa North 7.4mph /  11.9km/h 8mph /  12.9km/h 51.6% 0.00in /  0mm 238 W/m2
14:34 70.6 °F /  21.4 °C 52.1 °F /  11.2 °C 30.13in /  1020.2hPa North 7.4mph /  11.9km/h 8mph /  12.9km/h 52% 0.00in /  0mm 223 W/m2
14:39 70.5 °F /  21.4 °C 52.5 °F /  11.4 °C 30.13in /  1020.2hPa North 5.3mph /  8.5km/h 8mph /  12.9km/h 52.8% 0.00in /  0mm 209 W/m2
14:44 70.3 °F /  21.3 °C 52.4 °F /  11.3 °C 30.13in /  1020.2hPa North 4.1mph /  6.6km/h 6mph /  9.7km/h 53% 0.00in /  0mm 196 W/m2
14:49 70.2 °F /  21.2 °C 52.3 °F /  11.3 °C 30.13in /  1020.2hPa North 4.7mph /  7.6km/h 7mph /  11.3km/h 53.3% 0.00in /  0mm 181 W/m2
14:54 70.2 °F /  21.2 °C 52.6 °F /  11.4 °C 30.13in /  1020.2hPa North 5.5mph /  8.9km/h 6mph /  9.7km/h 53.8% 0.00in /  0mm 168 W/m2
14:59 70 °F /  21.1 °C 52.1 °F /  11.2 °C 30.13in /  1020.2hPa North 7.1mph /  11.4km/h 7mph /  11.3km/h 53% 0.00in /  0mm 159 W/m2
15:04 69.6 °F /  20.9 °C 51.8 °F /  11 °C 30.13in /  1020.2hPa North 4.1mph /  6.6km/h 8mph /  12.9km/h 53.2% 0.00in /  0mm 146 W/m2
15:09 69.4 °F /  20.8 °C 52.1 °F /  11.2 °C 30.13in /  1020.2hPa North 4.3mph /  6.9km/h 5mph /  8km/h 54% 0.00in /  0mm 134 W/m2
15:14 69.2 °F /  20.7 °C 52.1 °F /  11.2 °C 30.13in /  1020.2hPa North 6.9mph /  11.1km/h 8mph /  12.9km/h 54.5% 0.00in /  0mm 122 W/m2
15:19 68.9 °F /  20.5 °C 52.1 °F /  11.2 °C 30.13in /  1020.2hPa North 5.3mph /  8.5km/h 8mph /  12.9km/h 55% 0.00in /  0mm 108 W/m2
15:24 68.6 °F /  20.3 °C 52.7 °F /  11.5 °C 30.13in /  1020.2hPa North 6.4mph /  10.3km/h 6mph /  9.7km/h 56.8% 0.00in /  0mm 96 W/m2
15:29 68.3 °F /  20.2 °C 52.6 °F /  11.4 °C 30.13in /  1020.2hPa North 5.2mph /  8.4km/h 8mph /  12.9km/h 57.4% 0.00in /  0mm 83 W/m2
15:34 68 °F /  20 °C 52.6 °F /  11.4 °C 30.12in /  1019.9hPa North 7.1mph /  11.4km/h 7mph /  11.3km/h 58% 0.00in /  0mm 71 W/m2
15:39 67.5 °F /  19.7 °C 52.2 °F /  11.2 °C 30.12in /  1019.9hPa North 5.5mph /  8.9km/h 8mph /  12.9km/h 58% 0.00in /  0mm 60 W/m2
15:44 67.1 °F /  19.5 °C 51.9 °F /  11.1 °C 30.12in /  1019.9hPa North 4.4mph /  7.1km/h 8mph /  12.9km/h 58% 0.00in /  0mm 51 W/m2
15:49 66.8 °F /  19.3 °C 51.9 °F /  11.1 °C 30.12in /  1019.9hPa North 6.7mph /  10.8km/h 7mph /  11.3km/h 58.7% 0.00in /  0mm 43 W/m2
15:54 66.6 °F /  19.2 °C 51.8 °F /  11 °C 30.12in /  1019.9hPa North 5.7mph /  9.2km/h 7mph /  11.3km/h 59% 0.00in /  0mm 36 W/m2
15:59 66.3 °F /  19.1 °C 51.5 °F /  10.8 °C 30.12in /  1019.9hPa North 4.8mph /  7.7km/h 6mph /  9.7km/h 59% 0.00in /  0mm 29 W/m2
16:04 66 °F /  18.9 °C 51.3 °F /  10.7 °C 30.12in /  1019.9hPa NNW 5.8mph /  9.3km/h 6mph /  9.7km/h 59% 0.00in /  0mm 24 W/m2
16:09 65.7 °F /  18.7 °C 51 °F /  10.6 °C 30.12in /  1019.9hPa NNW 6.5mph /  10.5km/h 7mph /  11.3km/h 59% 0.00in /  0mm 17 W/m2
16:14 65.5 °F /  18.6 °C 51 °F /  10.6 °C 30.12in /  1019.9hPa NNW 5.2mph /  8.4km/h 9mph /  14.5km/h 59.5% 0.00in /  0mm 13 W/m2
16:19 65.1 °F /  18.4 °C 50.9 °F /  10.5 °C 30.12in /  1019.9hPa NNW 8.1mph /  13km/h 6mph /  9.7km/h 60% 0.00in /  0mm 9 W/m2
16:24 64.9 °F /  18.3 °C 50.7 °F /  10.4 °C 30.12in /  1019.9hPa NNW 7.8mph /  12.6km/h 12mph /  19.3km/h 60% 0.00in /  0mm 5 W/m2
16:29 64.7 °F /  18.2 °C 50.9 °F /  10.5 °C 30.12in /  1019.9hPa NNW 3.3mph /  5.3km/h 12mph /  19.3km/h 61% 0.00in /  0mm 3 W/m2
16:34 64.4 °F /  18 °C 51.1 °F /  10.6 °C 30.12in /  1019.9hPa WNW 2.5mph /  4km/h 4mph /  6.4km/h 62% 0.00in /  0mm 1 W/m2
16:39 64.1 °F /  17.8 °C 50.8 °F /  10.4 °C 30.12in /  1019.9hPa WNW 1.5mph /  2.4km/h 3mph /  4.8km/h 62% 0.00in /  0mm 0 W/m2
16:44 63.7 °F /  17.6 °C 50.6 °F /  10.3 °C 30.12in /  1019.9hPa West 2.1mph /  3.4km/h 2mph /  3.2km/h 62.5% 0.00in /  0mm 0 W/m2
16:49 63.2 °F /  17.3 °C 50.4 °F /  10.2 °C 30.12in /  1019.9hPa SW 1.3mph /  2.1km/h 2mph /  3.2km/h 63% 0.00in /  0mm 0 W/m2
16:54 62.8 °F /  17.1 °C 50.1 °F /  10.1 °C 30.12in /  1019.9hPa SW 1.5mph /  2.4km/h 2mph /  3.2km/h 63.3% 0.00in /  0mm 0 W/m2
16:59 62.3 °F /  16.8 °C 50 °F /  10 °C 30.12in /  1019.9hPa WSW 2.1mph /  3.4km/h 2mph /  3.2km/h 64% 0.00in /  0mm 0 W/m2
17:04 61.9 °F /  16.6 °C 49.7 °F /  9.8 °C 30.12in /  1019.9hPa WSW 2.6mph /  4.2km/h 3mph /  4.8km/h 64.3% 0.00in /  0mm 0 W/m2
17:09 61.5 °F /  16.4 °C 49.6 °F /  9.8 °C 30.12in /  1019.9hPa West 2.3mph /  3.7km/h 3mph /  4.8km/h 65% 0.00in /  0mm 0 W/m2
17:14 61.1 °F /  16.2 °C 49.3 °F /  9.6 °C 30.12in /  1019.9hPa WNW 1.6mph /  2.6km/h 2mph /  3.2km/h 65% 0.00in /  0mm 0 W/m2
17:19 60.7 °F /  15.9 °C 49.5 °F /  9.7 °C 30.12in /  1019.9hPa NW 1.1mph /  1.8km/h 2mph /  3.2km/h 66.4% 0.00in /  0mm 0 W/m2
17:24 60.3 °F /  15.7 °C 49.5 °F /  9.7 °C 30.12in /  1019.9hPa West 1.6mph /  2.6km/h 1.1mph /  1.8km/h 67.4% 0.00in /  0mm 0 W/m2
17:29 59.9 °F /  15.5 °C 49.3 °F /  9.6 °C 30.12in /  1019.9hPa WSW 2.3mph /  3.7km/h 2mph /  3.2km/h 68% 0.00in /  0mm 0 W/m2
17:34 59.5 °F /  15.3 °C 49.1 °F /  9.5 °C 30.12in /  1019.9hPa WSW 2.5mph /  4km/h 3mph /  4.8km/h 68.6% 0.00in /  0mm 0 W/m2
17:39 58.9 °F /  14.9 °C 48.7 °F /  9.3 °C 30.12in /  1019.9hPa WSW 3.1mph /  5km/h 3mph /  4.8km/h 69% 0.00in /  0mm 0 W/m2
17:44 58.5 °F /  14.7 °C 48.3 °F /  9.1 °C 30.12in /  1019.9hPa WSW 3.3mph /  5.3km/h 4mph /  6.4km/h 68.7% 0.00in /  0mm 0 W/m2
17:49 58.1 °F /  14.5 °C 47.9 °F /  8.8 °C 30.12in /  1019.9hPa West 3mph /  4.8km/h 3mph /  4.8km/h 68.7% 0.00in /  0mm 0 W/m2
17:54 57.6 °F /  14.2 °C 47.5 °F /  8.6 °C 30.12in /  1019.9hPa WSW 2.8mph /  4.5km/h 3mph /  4.8km/h 69% 0.00in /  0mm 0 W/m2
17:59 57.1 °F /  13.9 °C 47 °F /  8.3 °C 30.12in /  1019.9hPa WSW 2.7mph /  4.3km/h 3mph /  4.8km/h 69% 0.00in /  0mm 0 W/m2
18:04 56.7 °F /  13.7 °C 46.9 °F /  8.3 °C 30.12in /  1019.9hPa WSW 3.3mph /  5.3km/h 3mph /  4.8km/h 69.5% 0.00in /  0mm 0 W/m2
18:09 56.3 °F /  13.5 °C 46.6 °F /  8.1 °C 30.12in /  1019.9hPa WSW 3.5mph /  5.6km/h 4mph /  6.4km/h 70% 0.00in /  0mm 0 W/m2
18:14 55.9 °F /  13.3 °C 46.3 °F /  7.9 °C 30.12in /  1019.9hPa WSW 4.8mph /  7.7km/h 5mph /  8km/h 70% 0.00in /  0mm 0 W/m2
18:19 55.5 °F /  13.1 °C 46.5 °F /  8.1 °C 30.12in /  1019.9hPa West 4.8mph /  7.7km/h 6mph /  9.7km/h 71.8% 0.00in /  0mm 0 W/m2
18:24 55.1 °F /  12.8 °C 46.3 °F /  7.9 °C 30.12in /  1019.9hPa West 4.3mph /  6.9km/h 6mph /  9.7km/h 72% 0.00in /  0mm 0 W/m2
18:29 54.9 °F /  12.7 °C 46.1 °F /  7.8 °C 30.12in /  1019.9hPa West 3.4mph /  5.5km/h 5mph /  8km/h 72.3% 0.00in /  0mm 0 W/m2
18:34 54.6 °F /  12.6 °C 46.1 °F /  7.8 °C 30.12in /  1019.9hPa West 3.7mph /  6km/h 3.4mph /  5.5km/h 73% 0.00in /  0mm 0 W/m2
18:39 54.1 °F /  12.3 °C 45.9 °F /  7.7 °C 30.12in /  1019.9hPa West 4mph /  6.4km/h 5mph /  8km/h 73.5% 0.00in /  0mm 0 W/m2
18:44 53.9 °F /  12.2 °C 45.8 °F /  7.7 °C 30.12in /  1019.9hPa West 4.5mph /  7.2km/h 5mph /  8km/h 74% 0.00in /  0mm 0 W/m2
18:49 53.5 °F /  11.9 °C 45.4 °F /  7.4 °C 30.12in /  1019.9hPa West 4.2mph /  6.8km/h 5mph /  8km/h 74% 0.00in /  0mm 0 W/m2
18:54 53.2 °F /  11.8 °C 45.5 °F /  7.5 °C 30.12in /  1019.9hPa West 3.5mph /  5.6km/h 5mph /  8km/h 74.9% 0.00in /  0mm 0 W/m2
18:59 53 °F /  11.7 °C 45.3 °F /  7.4 °C 30.12in /  1019.9hPa West 4mph /  6.4km/h 4mph /  6.4km/h 75% 0.00in /  0mm 0 W/m2
19:04 52.8 °F /  11.6 °C 45.1 °F /  7.3 °C 30.12in /  1019.9hPa West 3.5mph /  5.6km/h 5mph /  8km/h 75% 0.00in /  0mm 0 W/m2
19:09 52.6 °F /  11.4 °C 45.2 °F /  7.3 °C 30.12in /  1019.9hPa West 3mph /  4.8km/h 3mph /  4.8km/h 75.8% 0.00in /  0mm 0 W/m2
19:14 52.3 °F /  11.3 °C 45.3 °F /  7.4 °C 30.12in /  1019.9hPa WNW 2.8mph /  4.5km/h 3mph /  4.8km/h 77% 0.00in /  0mm 0 W/m2
19:19 52.2 °F /  11.2 °C 45.3 °F /  7.4 °C 30.12in /  1019.9hPa WNW 3.4mph /  5.5km/h 3mph /  4.8km/h 77.2% 0.00in /  0mm 0 W/m2
19:24 52.1 °F /  11.2 °C 45.4 °F /  7.4 °C 30.12in /  1019.9hPa WNW 3.2mph /  5.1km/h 3mph /  4.8km/h 78% 0.00in /  0mm 0 W/m2
19:29 51.9 °F /  11.1 °C 45.2 °F /  7.3 °C 30.12in /  1019.9hPa WNW 3.2mph /  5.1km/h 3mph /  4.8km/h 78% 0.00in /  0mm 0 W/m2
19:34 51.7 °F /  10.9 °C 45.1 °F /  7.3 °C 30.12in /  1019.9hPa NW 3.3mph /  5.3km/h 3mph /  4.8km/h 78% 0.00in /  0mm 0 W/m2
19:39 51.6 °F /  10.9 °C 45.2 °F /  7.3 °C 30.12in /  1019.9hPa NNW 1.7mph /  2.7km/h 3mph /  4.8km/h 78.5% 0.00in /  0mm 0 W/m2
19:44 51.5 °F /  10.8 °C 44.9 °F /  7.2 °C 30.12in /  1019.9hPa NW 1.2mph /  1.9km/h 2mph /  3.2km/h 78% 0.00in /  0mm 0 W/m2
19:49 51.4 °F /  10.8 °C 44.8 °F /  7.1 °C 30.12in /  1019.9hPa West 1.2mph /  1.9km/h 2mph /  3.2km/h 78% 0.00in /  0mm 0 W/m2
19:54 51.2 °F /  10.7 °C 44.6 °F /  7 °C 30.12in /  1019.9hPa WSW 1.3mph /  2.1km/h 1.1mph /  1.8km/h 78% 0.00in /  0mm 0 W/m2
19:59 51.1 °F /  10.6 °C 44.7 °F /  7.1 °C 30.12in /  1019.9hPa West 2.2mph /  3.5km/h 2mph /  3.2km/h 78.7% 0.00in /  0mm 0 W/m2
20:04 50.9 °F /  10.5 °C 44.6 °F /  7 °C 30.12in /  1019.9hPa West 2.2mph /  3.5km/h 2mph /  3.2km/h 79% 0.00in /  0mm 0 W/m2
20:09 50.9 °F /  10.5 °C 44.8 °F /  7.1 °C 30.12in /  1019.9hPa West 2.2mph /  3.5km/h 2mph /  3.2km/h 79.6% 0.00in /  0mm 0 W/m2
20:14 50.9 °F /  10.5 °C 44.9 °F /  7.2 °C 30.12in /  1019.9hPa WNW 2.1mph /  3.4km/h 2mph /  3.2km/h 80% 0.00in /  0mm 0 W/m2
20:19 50.9 °F /  10.5 °C 44.9 °F /  7.2 °C 30.12in /  1019.9hPa WNW 2.2mph /  3.5km/h 2mph /  3.2km/h 80% 0.00in /  0mm 0 W/m2
20:24 50.9 °F /  10.5 °C 44.9 °F /  7.2 °C 30.12in /  1019.9hPa WNW 2.2mph /  3.5km/h 2mph /  3.2km/h 80% 0.00in /  0mm 0 W/m2
20:29 50.9 °F /  10.5 °C 44.9 °F /  7.2 °C 30.12in /  1019.9hPa WNW 1.8mph /  2.9km/h 2mph /  3.2km/h 80% 0.00in /  0mm 0 W/m2
20:34 50.9 °F /  10.5 °C 44.9 °F /  7.2 °C 30.12in /  1019.9hPa WNW 1.5mph /  2.4km/h 2mph /  3.2km/h 80% 0.00in /  0mm 0 W/m2
20:39 50.8 °F /  10.4 °C 44.8 °F /  7.1 °C 30.12in /  1019.9hPa NW 0.5mph /  0.8km/h 2mph /  3.2km/h 80% 0.00in /  0mm 0 W/m2
Knjazevac, Serbia
Compliments of Weather Underground - 2 mb